createdAt,value
2023-03-25T00:00:19.317Z,41.3
2023-03-25T00:05:19.918Z,41.2
2023-03-25T00:10:21.260Z,41.2
2023-03-25T00:15:22.600Z,41.2
2023-03-25T00:20:23.887Z,41.1
2023-03-25T00:25:24.350Z,41.1
2023-03-25T00:30:24.798Z,41
2023-03-25T00:35:25.276Z,41
2023-03-25T00:40:25.879Z,40.9
2023-03-25T00:45:26.475Z,40.9
2023-03-25T00:50:26.980Z,40.9
2023-03-25T00:55:27.502Z,40.8
2023-03-25T01:00:28.048Z,40.8
2023-03-25T01:05:28.574Z,40.7
2023-03-25T01:10:29.059Z,40.7
2023-03-25T01:15:29.521Z,40.6
2023-03-25T01:20:30.032Z,40.6
2023-03-25T01:25:30.537Z,40.6
2023-03-25T01:30:31.028Z,40.5
2023-03-25T01:35:31.589Z,40.4
2023-03-25T01:40:32.111Z,40.4
2023-03-25T01:45:32.719Z,40.4
2023-03-25T01:50:33.358Z,40.3
2023-03-25T01:55:33.868Z,40.3
2023-03-25T02:00:34.401Z,40.2
2023-03-25T02:05:34.881Z,40.2
2023-03-25T02:10:35.377Z,40.2
2023-03-25T02:15:35.816Z,40.1
2023-03-25T02:20:36.243Z,40.1
2023-03-25T02:25:36.700Z,40.1
2023-03-25T02:30:38.088Z,40
2023-03-25T02:35:38.568Z,39.9
2023-03-25T02:40:39.023Z,39.9
2023-03-25T02:45:39.736Z,39.9
2023-03-25T02:50:40.239Z,39.8
2023-03-25T02:55:40.677Z,39.8
2023-03-25T03:00:42.010Z,39.7
2023-03-25T03:05:42.457Z,39.7
2023-03-25T03:10:42.889Z,39.7
2023-03-25T03:15:43.362Z,39.6
2023-03-25T03:20:43.782Z,39.6
2023-03-25T03:25:44.274Z,39.6
2023-03-25T03:30:45.612Z,39.5
2023-03-25T03:35:46.073Z,39.5
2023-03-25T03:40:46.627Z,39.4
2023-03-25T03:45:47.078Z,39.4
2023-03-25T03:50:47.537Z,39.4
2023-03-25T03:55:47.986Z,39.3
2023-03-25T04:00:48.784Z,39.3
2023-03-25T04:05:49.355Z,39.2
2023-03-25T04:10:50.061Z,39.2
2023-03-25T04:15:50.737Z,39.2
2023-03-25T04:20:51.442Z,39.1
2023-03-25T04:25:52.111Z,39.1
2023-03-25T04:30:52.884Z,39.1
2023-03-25T04:35:53.647Z,39
2023-03-25T04:40:54.441Z,39
2023-03-25T04:45:55.553Z,38.9
2023-03-25T04:50:56.148Z,38.9
2023-03-25T04:55:56.570Z,38.9
2023-03-25T05:00:57.049Z,38.9
2023-03-25T05:05:57.520Z,38.8
2023-03-25T05:10:57.946Z,38.7
2023-03-25T05:15:58.438Z,38.7
2023-03-25T05:20:58.952Z,38.7
2023-03-25T05:25:59.448Z,38.7
2023-03-25T05:30:59.897Z,38.6
2023-03-25T05:36:00.535Z,38.6
2023-03-25T05:41:01.041Z,38.6
2023-03-25T05:46:01.540Z,38.5
2023-03-25T05:51:02.074Z,38.5
2023-03-25T05:56:02.525Z,38.4
2023-03-25T06:01:03.039Z,38.4
2023-03-25T06:06:03.460Z,38.4
2023-03-25T06:11:03.877Z,38.4
2023-03-25T06:16:04.330Z,38.3
2023-03-25T06:21:04.798Z,38.3
2023-03-25T06:26:05.185Z,38.2
2023-03-25T06:31:05.606Z,38.2
2023-03-25T06:36:06.052Z,38.2
2023-03-25T06:41:06.663Z,38.2
2023-03-25T06:46:08.034Z,38.1
2023-03-25T06:51:08.556Z,38.1
2023-03-25T06:56:09.068Z,38.1
2023-03-25T07:01:09.536Z,38.1
2023-03-25T07:06:09.968Z,38
2023-03-25T07:11:10.385Z,37.9
2023-03-25T07:16:10.915Z,37.9
2023-03-25T07:21:15.112Z,37.9
2023-03-25T07:26:15.554Z,37.9
2023-03-25T07:31:16.012Z,37.9
2023-03-25T07:36:16.350Z,37.8
2023-03-25T07:41:17.186Z,37.7
2023-03-25T07:46:17.650Z,37.7
2023-03-25T07:51:18.166Z,37.7
2023-03-25T07:56:18.562Z,37.7
2023-03-25T08:01:18.945Z,37.6
2023-03-25T08:06:19.436Z,37.6
2023-03-25T08:11:19.875Z,37.6
2023-03-25T08:16:20.226Z,37.6
2023-03-25T08:21:20.530Z,37.6
2023-03-25T08:26:20.850Z,37.5
2023-03-25T08:31:21.402Z,37.5
2023-03-25T08:36:22.095Z,37.4
2023-03-25T08:41:22.492Z,37.4
2023-03-25T08:46:23.839Z,37.4
2023-03-25T08:51:25.182Z,37.4
2023-03-25T08:56:25.557Z,37.2
2023-03-25T09:01:25.951Z,37.2
2023-03-25T09:06:26.359Z,37.2
2023-03-25T09:11:34.359Z,37.1
2023-03-25T09:16:36.471Z,37.1
2023-03-25T09:21:36.915Z,37.1
2023-03-25T09:26:37.291Z,37
2023-03-25T09:31:37.684Z,37
2023-03-25T09:36:38.114Z,36.9
2023-03-25T09:41:38.525Z,36.9
2023-03-25T09:46:39.000Z,36.9
2023-03-25T09:51:39.332Z,36.9
2023-03-25T09:56:42.064Z,36.9
2023-03-25T10:01:43.908Z,36.8
2023-03-25T10:06:44.328Z,36.8
2023-03-25T10:11:44.904Z,36.7
2023-03-25T10:16:45.362Z,36.7
2023-03-25T10:21:45.875Z,36.7
2023-03-25T10:26:46.240Z,36.7
2023-03-25T10:31:46.633Z,36.7
2023-03-25T10:36:47.400Z,36.6
2023-03-25T10:41:48.750Z,36.6
2023-03-25T10:46:49.187Z,36.6
2023-03-25T10:51:49.518Z,36.6
2023-03-25T10:56:49.852Z,36.6
2023-03-25T11:01:50.234Z,36.5
2023-03-25T11:06:50.776Z,36.5
2023-03-25T11:11:51.309Z,36.4
2023-03-25T11:16:51.811Z,36.4
2023-03-25T11:21:52.334Z,36.4
2023-03-25T11:26:53.580Z,36.4
2023-03-25T11:31:53.983Z,36.4
2023-03-25T11:36:54.557Z,36.3
2023-03-25T11:41:55.001Z,36.3
2023-03-25T11:46:55.341Z,36.2
2023-03-25T11:51:56.606Z,36.2
2023-03-25T11:56:57.035Z,36.2
2023-03-25T12:01:57.565Z,36.2
2023-03-25T12:06:57.960Z,36.2
2023-03-25T12:11:58.404Z,36.1
2023-03-25T12:16:58.945Z,36.1
2023-03-25T12:21:59.460Z,36.1
2023-03-25T12:26:59.746Z,36.1
2023-03-25T12:32:00.267Z,36.1
2023-03-25T12:37:00.612Z,36
2023-03-25T12:42:00.984Z,36
2023-03-25T12:47:01.533Z,36
2023-03-25T12:52:01.948Z,35.9
2023-03-25T12:57:02.758Z,35.9
2023-03-25T13:02:03.613Z,35.9
2023-03-25T13:07:03.996Z,35.9
2023-03-25T13:12:04.551Z,35.9
2023-03-25T13:17:05.149Z,35.8
2023-03-25T13:22:05.541Z,35.8
2023-03-25T13:27:05.906Z,35.7
2023-03-25T13:32:06.297Z,35.7
2023-03-25T13:37:06.884Z,35.7
2023-03-25T13:42:07.280Z,35.7
2023-03-25T13:47:07.659Z,35.7
2023-03-25T13:52:08.101Z,35.7
2023-03-25T13:57:08.540Z,35.6
2023-03-25T14:02:08.939Z,35.6
2023-03-25T14:07:09.293Z,35.3
2023-03-25T14:12:09.696Z,35.1
2023-03-25T14:17:10.037Z,35.1
2023-03-25T14:22:10.831Z,35.1
2023-03-25T14:27:11.153Z,35
2023-03-25T14:32:12.554Z,34.9
2023-03-25T14:37:12.901Z,34.9
2023-03-25T14:42:13.226Z,34.9
2023-03-25T14:47:13.589Z,34.9
2023-03-25T14:52:14.099Z,34.9
2023-03-25T14:57:14.592Z,34.9
2023-03-25T15:02:15.100Z,34.9
2023-03-25T15:07:15.421Z,34.8
2023-03-25T15:12:16.735Z,34.8
2023-03-25T15:17:17.184Z,34.7
2023-03-25T15:22:17.473Z,34.7
2023-03-25T15:27:17.779Z,34.7
2023-03-25T15:32:18.199Z,34.7
2023-03-25T15:37:18.447Z,34.7
2023-03-25T15:42:18.742Z,34.7
2023-03-25T15:47:19.049Z,34.6
2023-03-25T15:52:20.831Z,34.6
2023-03-25T15:57:21.252Z,34.6
2023-03-25T16:02:21.590Z,34.6
2023-03-25T16:07:21.871Z,34.6
2023-03-25T16:12:22.159Z,34.6
2023-03-25T16:17:22.525Z,34.5
2023-03-25T16:22:22.848Z,34.5
2023-03-25T16:27:23.991Z,34.4
2023-03-25T16:32:33.429Z,34.4
2023-03-25T16:37:33.850Z,34.4
2023-03-25T16:42:34.165Z,34.4
2023-03-25T16:47:34.658Z,34.4
2023-03-25T16:52:35.065Z,34.4
2023-03-25T16:57:35.493Z,34.3
2023-03-25T17:02:35.737Z,35.9
2023-03-25T17:07:36.168Z,38.2
2023-03-25T17:12:36.645Z,40.8
2023-03-25T17:17:37.332Z,41.5
2023-03-25T17:22:37.813Z,41.6
2023-03-25T17:27:38.312Z,42.3
2023-03-25T17:32:38.946Z,42.6
2023-03-25T17:37:39.682Z,42.6
2023-03-25T17:42:40.528Z,42.6
2023-03-25T17:47:41.152Z,42.9
2023-03-25T17:52:41.744Z,43.7
2023-03-25T17:57:42.362Z,43.9
2023-03-25T18:02:42.998Z,43.8
2023-03-25T18:07:43.616Z,44.2
2023-03-25T18:12:44.197Z,44.2
2023-03-25T18:17:45.635Z,44.2
2023-03-25T18:22:46.138Z,44.2
2023-03-25T18:27:46.691Z,44.2
2023-03-25T18:32:47.216Z,44.1
2023-03-25T18:37:48.092Z,43.7
2023-03-25T18:42:48.645Z,42.9
2023-03-25T18:47:49.276Z,42.7
2023-03-25T18:52:49.813Z,42.6
2023-03-25T18:57:50.427Z,42.5
2023-03-25T19:02:52.092Z,42.4
2023-03-25T19:07:52.664Z,42.2
2023-03-25T19:12:53.398Z,42.2
2023-03-25T19:17:54.379Z,42.1
2023-03-25T19:22:54.918Z,42
2023-03-25T19:27:55.413Z,41.9
2023-03-25T19:32:56.315Z,41.7
2023-03-25T19:37:56.876Z,41.7
2023-03-25T19:42:57.320Z,41.6
2023-03-25T19:47:57.924Z,41.5
2023-03-25T19:52:58.557Z,41.4
2023-03-25T19:57:59.021Z,41.3
2023-03-25T20:02:59.722Z,41.2
2023-03-25T20:08:00.285Z,41.1
2023-03-25T20:13:01.633Z,41
2023-03-25T20:18:02.330Z,40.9
2023-03-25T20:23:02.856Z,40.8
2023-03-25T20:28:03.361Z,40.8
2023-03-25T20:33:04.772Z,40.6
2023-03-25T20:38:05.385Z,40.6
2023-03-25T20:43:06.736Z,40.5
2023-03-25T20:48:07.309Z,40.4
2023-03-25T20:53:07.824Z,40.3
2023-03-25T20:58:08.350Z,40.2
2023-03-25T21:03:08.904Z,40.1
2023-03-25T21:08:09.522Z,39.9
2023-03-25T21:13:09.927Z,39.7
2023-03-25T21:18:10.390Z,39.6
2023-03-25T21:23:11.731Z,39.4
2023-03-25T21:28:12.220Z,39.4
2023-03-25T21:33:12.677Z,39.3
2023-03-25T21:38:13.095Z,39.2
2023-03-25T21:43:13.499Z,39.1
2023-03-25T21:48:13.994Z,39.1
2023-03-25T21:53:14.474Z,38.9
2023-03-25T21:58:14.906Z,38.9
2023-03-25T22:03:15.382Z,38.8
2023-03-25T22:08:15.974Z,38.7
2023-03-25T22:13:16.461Z,38.7
2023-03-25T22:18:19.816Z,38.6
2023-03-25T22:23:20.286Z,38.6
2023-03-25T22:28:20.689Z,38.5
2023-03-25T22:33:21.143Z,38.4
2023-03-25T22:38:21.624Z,38.4
2023-03-25T22:43:23.075Z,38.3
2023-03-25T22:48:23.523Z,38.2
2023-03-25T22:53:23.965Z,38.1
2023-03-25T22:58:24.394Z,38.1
2023-03-25T23:03:24.914Z,38
2023-03-25T23:08:25.462Z,38
2023-03-25T23:13:25.844Z,37.9
2023-03-25T23:18:26.253Z,37.8
2023-03-25T23:23:26.691Z,37.7
2023-03-25T23:28:27.124Z,37.7
2023-03-25T23:33:27.463Z,37.7
2023-03-25T23:38:28.277Z,37.6
2023-03-25T23:43:28.672Z,37.6
2023-03-25T23:48:29.104Z,37.5
2023-03-25T23:53:29.425Z,37.4
2023-03-25T23:58:29.786Z,37.4
